createdAt,value
2023-06-12T00:00:54.377Z,2.03
2023-06-12T00:03:25.673Z,2.50
2023-06-12T00:05:55.577Z,2.20
2023-06-12T00:08:23.528Z,2.20
2023-06-12T00:10:50.446Z,1.97
2023-06-12T00:13:17.416Z,2.53
2023-06-12T00:15:44.476Z,2.57
2023-06-12T00:18:12.365Z,2.07
2023-06-12T00:20:39.511Z,2.20
2023-06-12T00:23:07.334Z,2.33
2023-06-12T00:25:34.770Z,2.20
2023-06-12T00:28:01.714Z,2.13
2023-06-12T00:30:28.714Z,2.13
2023-06-12T00:32:55.739Z,2.50
2023-06-12T00:35:22.945Z,2.37
2023-06-12T00:37:50.290Z,2.50
2023-06-12T00:40:17.928Z,2.20
2023-06-12T00:42:47.196Z,2.47
2023-06-12T00:45:15.248Z,2.20
2023-06-12T00:47:46.258Z,2.30
2023-06-12T00:50:14.825Z,2.70
2023-06-12T00:52:48.102Z,2.43
2023-06-12T00:55:17.086Z,2.87
2023-06-12T00:57:45.327Z,2.27
2023-06-12T01:00:15.380Z,2.43
2023-06-12T01:02:46.256Z,2.57
2023-06-12T01:05:16.943Z,2.30
2023-06-12T01:07:55.583Z,2.80
2023-06-12T01:10:50.888Z,2.20
2023-06-12T01:13:19.941Z,2.43
2023-06-12T01:15:47.046Z,2.47
2023-06-12T01:18:14.254Z,2.40
2023-06-12T01:20:41.724Z,2.23
2023-06-12T01:23:19.585Z,2.63
2023-06-12T01:26:27.665Z,2.23
2023-06-12T01:29:06.815Z,2.37
2023-06-12T01:32:12.884Z,2.63
2023-06-12T01:34:52.179Z,2.40
2023-06-12T01:37:35.626Z,2.40
2023-06-12T01:40:09.550Z,2.40
2023-06-12T01:42:37.148Z,2.17
2023-06-12T01:45:04.521Z,2.57
2023-06-12T01:47:31.528Z,2.20
2023-06-12T01:49:58.641Z,2.30
2023-06-12T01:52:25.587Z,2.70
2023-06-12T01:54:52.652Z,2.67
2023-06-12T01:57:20.738Z,2.37
2023-06-12T01:59:49.420Z,2.67
2023-06-12T02:02:19.509Z,2.50
2023-06-12T02:04:46.754Z,2.10
2023-06-12T02:07:14.294Z,2.77
2023-06-12T02:09:41.240Z,2.30
2023-06-12T02:12:09.076Z,2.20
2023-06-12T02:14:36.108Z,2.57
2023-06-12T02:17:05.776Z,2.17
2023-06-12T02:19:33.952Z,2.37
2023-06-12T02:22:01.569Z,2.50
2023-06-12T02:24:33.172Z,2.27
2023-06-12T02:27:00.211Z,2.40
2023-06-12T02:29:27.212Z,2.50
2023-06-12T02:31:54.311Z,2.40
2023-06-12T02:34:21.509Z,2.33
2023-06-12T02:36:48.927Z,2.40
2023-06-12T02:39:16.523Z,2.37
2023-06-12T02:41:49.089Z,2.60
2023-06-12T02:44:16.497Z,2.40
2023-06-12T02:46:57.906Z,2.20
2023-06-12T02:49:29.840Z,2.70
2023-06-12T02:51:57.546Z,2.43
2023-06-12T02:54:29.270Z,2.40
2023-06-12T02:56:56.331Z,2.27
2023-06-12T02:59:24.799Z,2.00
2023-06-12T03:01:52.045Z,2.00
2023-06-12T03:04:20.978Z,2.30
2023-06-12T03:06:53.445Z,2.27
2023-06-12T03:09:22.230Z,1.97
2023-06-12T03:11:52.682Z,2.43
2023-06-12T03:14:22.657Z,2.40
2023-06-12T03:16:50.326Z,2.17
2023-06-12T03:19:18.224Z,1.90
2023-06-12T03:21:45.508Z,1.80
2023-06-12T03:24:12.695Z,2.50
2023-06-12T03:26:40.072Z,2.07
2023-06-12T03:29:07.241Z,2.23
2023-06-12T03:31:34.720Z,2.00
2023-06-12T03:34:01.917Z,1.90
2023-06-12T03:36:35.200Z,2.10
2023-06-12T03:39:04.321Z,1.90
2023-06-12T03:41:33.196Z,1.97
2023-06-12T03:44:00.819Z,1.93
2023-06-12T03:46:32.367Z,1.80
2023-06-12T03:48:59.729Z,2.07
2023-06-12T03:51:27.069Z,2.13
2023-06-12T03:53:54.129Z,1.80
2023-06-12T03:56:21.139Z,2.00
2023-06-12T03:58:48.167Z,1.77
2023-06-12T04:01:15.167Z,1.60
2023-06-12T04:03:45.673Z,1.70
2023-06-12T04:06:13.249Z,1.83
2023-06-12T04:08:41.090Z,1.90
2023-06-12T04:11:15.988Z,2.70
2023-06-12T04:13:43.117Z,1.50
2023-06-12T04:16:11.508Z,1.50
2023-06-12T04:18:40.040Z,1.60
2023-06-12T04:21:08.403Z,1.60
2023-06-12T04:23:38.732Z,1.90
2023-06-12T04:26:06.217Z,1.60
2023-06-12T04:28:39.421Z,1.50
2023-06-12T04:31:06.472Z,1.70
2023-06-12T04:33:36.576Z,1.60
2023-06-12T04:36:04.468Z,1.50
2023-06-12T04:38:40.146Z,1.60
2023-06-12T04:41:07.094Z,1.30
2023-06-12T04:43:34.173Z,1.67
2023-06-12T04:46:01.510Z,1.17
2023-06-12T04:48:28.735Z,1.63
2023-06-12T04:50:56.331Z,1.70
2023-06-12T04:53:31.265Z,1.40
2023-06-12T04:55:59.797Z,1.43
2023-06-12T04:58:26.783Z,1.13
2023-06-12T05:00:56.630Z,1.70
2023-06-12T05:03:28.636Z,1.33
2023-06-12T05:05:56.767Z,1.40
2023-06-12T05:08:24.050Z,1.60
2023-06-12T05:10:51.249Z,1.30
2023-06-12T05:13:18.483Z,1.40
2023-06-12T05:15:45.467Z,1.70
2023-06-12T05:18:12.679Z,1.40
2023-06-12T05:20:39.756Z,1.70
2023-06-12T05:23:06.822Z,1.87
2023-06-12T05:25:33.872Z,1.40
2023-06-12T05:28:00.977Z,1.50
2023-06-12T05:30:27.931Z,1.10
2023-06-12T05:32:55.090Z,1.40
2023-06-12T05:35:22.329Z,1.20
2023-06-12T05:37:49.367Z,1.00
2023-06-12T05:40:16.413Z,1.20
2023-06-12T05:42:43.409Z,1.40
2023-06-12T05:45:10.572Z,1.50
2023-06-12T05:47:37.845Z,1.20
2023-06-12T05:50:05.604Z,1.17
2023-06-12T05:52:33.063Z,1.10
2023-06-12T05:55:03.213Z,0.93
2023-06-12T05:57:30.879Z,1.07
2023-06-12T05:59:58.058Z,1.23
2023-06-12T06:02:25.113Z,1.53
2023-06-12T06:04:54.933Z,1.20
2023-06-12T06:07:22.475Z,1.10
2023-06-12T06:09:50.539Z,1.43
2023-06-12T06:12:17.562Z,1.60
2023-06-12T06:14:44.517Z,1.17
2023-06-12T06:17:11.572Z,1.23
2023-06-12T06:19:38.662Z,1.20
2023-06-12T06:22:06.458Z,1.10
2023-06-12T06:24:33.579Z,1.10
2023-06-12T06:27:00.605Z,1.10
2023-06-12T06:29:27.599Z,1.00
2023-06-12T06:31:54.642Z,1.20
2023-06-12T06:34:22.008Z,1.30
2023-06-12T06:36:49.015Z,1.20
2023-06-12T06:39:16.401Z,1.23
2023-06-12T06:41:43.387Z,1.23
2023-06-12T06:44:10.473Z,1.20
2023-06-12T06:46:37.763Z,1.20
2023-06-12T06:49:04.963Z,1.10
2023-06-12T06:51:33.321Z,1.10
2023-06-12T06:54:00.654Z,1.00
2023-06-12T06:56:27.746Z,1.00
2023-06-12T06:58:55.833Z,1.20
2023-06-12T07:01:23.687Z,1.20
2023-06-12T07:03:51.712Z,1.20
2023-06-12T07:06:18.892Z,1.10
2023-06-12T07:08:45.850Z,1.30
2023-06-12T07:11:12.828Z,1.20
2023-06-12T07:13:41.575Z,1.33
2023-06-12T07:16:08.681Z,0.80
2023-06-12T07:18:35.885Z,0.93
2023-06-12T07:21:04.567Z,1.10
2023-06-12T07:23:31.554Z,1.00
2023-06-12T07:25:58.651Z,1.03
2023-06-12T07:28:25.700Z,1.10
2023-06-12T07:30:52.762Z,1.10
2023-06-12T07:33:19.887Z,1.00
2023-06-12T07:35:47.100Z,1.10
2023-06-12T07:38:14.713Z,1.03
2023-06-12T07:40:41.740Z,1.00
2023-06-12T07:43:09.865Z,1.17
2023-06-12T07:45:37.055Z,1.00
2023-06-12T07:48:04.176Z,0.90
2023-06-12T07:50:31.209Z,0.80
2023-06-12T07:52:58.364Z,1.17
2023-06-12T07:55:25.596Z,0.93
2023-06-12T07:57:52.544Z,0.70
2023-06-12T08:00:21.937Z,1.00
2023-06-12T08:03:02.179Z,0.80
2023-06-12T08:05:35.803Z,0.90
2023-06-12T08:08:03.415Z,0.77
2023-06-12T08:10:30.434Z,1.10
2023-06-12T08:12:57.393Z,0.90
2023-06-12T08:15:24.482Z,1.00
2023-06-12T08:17:52.493Z,1.00
2023-06-12T08:20:19.677Z,0.90
2023-06-12T08:22:47.875Z,0.90
2023-06-12T08:25:15.990Z,1.27
2023-06-12T08:27:43.141Z,0.80
2023-06-12T08:30:10.442Z,1.02
2023-06-12T08:32:37.894Z,1.02
2023-06-12T08:35:05.590Z,1.10
2023-06-12T08:37:33.695Z,1.05
2023-06-12T08:40:01.963Z,0.93
2023-06-12T08:42:28.967Z,0.85
2023-06-12T08:45:20.850Z,1.10
2023-06-12T08:47:50.390Z,0.80
2023-06-12T08:50:18.522Z,1.17
2023-06-12T08:52:47.762Z,1.10
2023-06-12T08:55:16.106Z,1.00
2023-06-12T08:57:44.487Z,1.25
2023-06-12T09:00:15.170Z,0.98
2023-06-12T09:02:46.222Z,0.90
2023-06-12T09:05:18.487Z,1.20
2023-06-12T09:07:47.673Z,0.90
2023-06-12T09:10:17.888Z,1.08
2023-06-12T09:12:46.372Z,1.15
2023-06-12T09:15:21.308Z,0.80
2023-06-12T09:17:52.766Z,0.90
2023-06-12T09:22:59.916Z,0.90
2023-06-12T09:25:37.316Z,0.98
2023-06-12T09:28:05.098Z,0.82
2023-06-12T09:30:32.696Z,0.98
2023-06-12T09:33:02.813Z,0.98
2023-06-12T09:35:29.929Z,0.75
2023-06-12T09:38:00.180Z,0.75
2023-06-12T09:40:27.220Z,0.90
2023-06-12T09:42:54.208Z,1.00
2023-06-12T09:45:24.613Z,1.20
2023-06-12T09:47:53.611Z,1.02
2023-06-12T09:50:22.754Z,0.98
2023-06-12T09:52:50.447Z,0.88
2023-06-12T09:55:19.025Z,1.02
2023-06-12T09:57:53.711Z,0.90
2023-06-12T10:00:21.945Z,1.17
2023-06-12T10:03:07.396Z,0.80
2023-06-12T10:05:55.824Z,1.40
2023-06-12T10:08:25.628Z,1.00
2023-06-12T10:10:54.209Z,0.90
2023-06-12T10:13:21.274Z,0.90
2023-06-12T10:15:49.003Z,1.00
2023-06-12T10:18:17.765Z,0.80
2023-06-12T10:20:47.202Z,0.88
2023-06-12T10:23:14.319Z,0.90
2023-06-12T10:25:41.663Z,0.90
2023-06-12T10:28:09.763Z,1.05
2023-06-12T10:30:36.884Z,1.00
2023-06-12T10:33:15.096Z,0.65
2023-06-12T10:35:42.525Z,0.80
2023-06-12T10:38:12.749Z,0.98
2023-06-12T10:40:48.750Z,0.73
2023-06-12T10:43:22.400Z,0.70
2023-06-12T10:46:01.765Z,0.80
2023-06-12T10:48:29.092Z,0.70
2023-06-12T10:50:57.593Z,0.82
2023-06-12T10:53:31.018Z,0.75
2023-06-12T10:56:09.190Z,0.85
2023-06-12T10:58:43.428Z,0.70
2023-06-12T11:01:14.142Z,0.73
2023-06-12T11:03:46.165Z,0.80
2023-06-12T11:06:17.904Z,1.13
2023-06-12T11:08:49.006Z,1.02
2023-06-12T11:11:18.345Z,0.80
2023-06-12T11:13:47.153Z,0.70
2023-06-12T11:16:18.578Z,0.90
2023-06-12T11:18:45.670Z,0.88
2023-06-12T11:21:12.744Z,0.88
2023-06-12T11:23:44.229Z,1.00
2023-06-12T11:26:11.860Z,1.10
2023-06-12T11:28:38.877Z,0.80
2023-06-12T11:31:12.036Z,0.65
2023-06-12T11:33:39.930Z,0.80
2023-06-12T11:36:07.164Z,1.00
2023-06-12T11:41:04.944Z,0.70
2023-06-12T11:43:32.918Z,0.80
2023-06-12T11:46:04.876Z,0.70
2023-06-12T11:51:03.562Z,1.20
2023-06-12T11:53:35.140Z,0.90
2023-06-12T11:58:37.226Z,0.98
2023-06-12T12:01:23.690Z,1.17
2023-06-12T12:03:55.427Z,1.08
2023-06-12T12:06:24.585Z,0.80
2023-06-12T12:08:59.508Z,0.70
2023-06-12T12:11:34.076Z,0.90
2023-06-12T12:14:03.145Z,1.08
2023-06-12T12:16:32.984Z,0.85
2023-06-12T12:19:00.041Z,0.70
2023-06-12T12:21:27.757Z,0.90
2023-06-12T12:23:55.204Z,0.80
2023-06-12T12:26:23.480Z,0.70
2023-06-12T12:28:50.681Z,0.80
2023-06-12T12:31:17.666Z,0.80
2023-06-12T12:33:44.691Z,0.95
2023-06-12T12:36:11.668Z,1.00
2023-06-12T12:38:38.632Z,0.80
2023-06-12T12:41:05.740Z,1.10
2023-06-12T12:43:32.713Z,0.85
2023-06-12T12:45:59.703Z,0.93
2023-06-12T12:48:26.925Z,0.80
2023-06-12T12:51:07.728Z,1.00
2023-06-12T12:53:36.908Z,0.90
2023-06-12T12:56:04.371Z,0.88
2023-06-12T12:58:31.422Z,0.80
2023-06-12T13:01:00.551Z,0.73
2023-06-12T13:03:34.930Z,0.60
2023-06-12T13:06:08.219Z,0.80
2023-06-12T13:08:40.683Z,0.85
2023-06-12T13:11:07.690Z,0.73
2023-06-12T13:13:34.718Z,1.20
2023-06-12T13:16:02.700Z,0.90
2023-06-12T13:18:29.810Z,0.73
2023-06-12T13:20:56.847Z,0.70
2023-06-12T13:23:24.218Z,0.82
2023-06-12T13:25:52.049Z,0.77
2023-06-12T13:28:19.298Z,0.90
2023-06-12T13:30:46.487Z,0.60
2023-06-12T13:33:13.639Z,0.95
2023-06-12T13:35:40.732Z,0.77
2023-06-12T13:38:07.744Z,0.88
2023-06-12T13:40:34.787Z,0.80
2023-06-12T13:43:01.964Z,0.90
2023-06-12T13:45:29.035Z,0.75
2023-06-12T13:47:56.196Z,0.70
2023-06-12T13:50:23.404Z,0.90
2023-06-12T13:52:50.552Z,0.80
2023-06-12T13:55:17.981Z,0.75
2023-06-12T13:57:45.783Z,0.70
2023-06-12T14:00:13.597Z,0.80
2023-06-12T14:02:41.538Z,0.60
2023-06-12T14:05:10.670Z,0.90
2023-06-12T14:07:38.211Z,0.65
2023-06-12T14:10:08.621Z,0.60
2023-06-12T14:12:35.802Z,0.60
2023-06-12T14:15:05.295Z,0.70
2023-06-12T14:17:32.980Z,0.55
2023-06-12T14:20:01.123Z,0.68
2023-06-12T14:22:28.796Z,0.50
2023-06-12T14:24:56.021Z,0.63
2023-06-12T14:27:23.581Z,0.80
2023-06-12T14:29:50.762Z,0.60
2023-06-12T14:32:17.873Z,0.57
2023-06-12T14:34:44.830Z,0.60
2023-06-12T14:37:11.815Z,0.45
2023-06-12T14:39:38.913Z,0.60
2023-06-12T14:42:06.127Z,0.80
2023-06-12T14:44:33.122Z,0.60
2023-06-12T14:47:00.494Z,0.75
2023-06-12T14:49:27.494Z,0.60
2023-06-12T14:51:54.467Z,0.70
2023-06-12T14:54:21.495Z,0.95
2023-06-12T14:56:48.529Z,1.42
2023-06-12T14:59:15.569Z,0.73
2023-06-12T15:01:42.633Z,0.70
2023-06-12T15:04:09.619Z,0.80
2023-06-12T15:06:36.558Z,0.80
2023-06-12T15:09:03.622Z,0.70
2023-06-12T15:11:31.083Z,0.90
2023-06-12T15:13:58.066Z,0.90
2023-06-12T15:16:25.759Z,0.90
2023-06-12T15:18:52.935Z,0.60
2023-06-12T15:21:21.533Z,0.70
2023-06-12T15:23:48.745Z,0.60
2023-06-12T15:26:15.989Z,0.80
2023-06-12T15:28:43.047Z,0.50
2023-06-12T15:31:10.222Z,0.90
2023-06-12T15:33:37.176Z,1.15
2023-06-12T15:36:05.648Z,0.80
2023-06-12T15:38:44.579Z,0.77
2023-06-12T15:41:13.641Z,1.05
2023-06-12T15:43:41.630Z,0.85
2023-06-12T15:46:10.156Z,0.90
2023-06-12T15:48:41.813Z,0.80
2023-06-12T15:51:11.664Z,0.70
2023-06-12T15:53:40.788Z,0.85
2023-06-12T15:56:08.546Z,0.90
2023-06-12T15:58:36.680Z,0.98
2023-06-12T16:01:03.858Z,1.10
2023-06-12T16:03:31.121Z,0.88
2023-06-12T16:05:58.183Z,0.77
2023-06-12T16:08:25.337Z,1.23
2023-06-12T16:10:52.477Z,1.00
2023-06-12T16:13:19.767Z,1.00
2023-06-12T16:15:46.839Z,1.02
2023-06-12T16:18:15.133Z,1.02
2023-06-12T16:20:42.186Z,1.27
2023-06-12T16:23:09.399Z,0.90
2023-06-12T16:25:36.556Z,0.98
2023-06-12T16:28:04.946Z,0.93
2023-06-12T16:30:33.505Z,1.25
2023-06-12T16:33:03.780Z,1.10
2023-06-12T16:35:30.954Z,0.90
2023-06-12T16:37:59.748Z,0.80
2023-06-12T16:40:27.617Z,0.90
2023-06-12T16:42:54.689Z,0.82
2023-06-12T16:45:22.705Z,1.00
2023-06-12T16:47:49.755Z,1.00
2023-06-12T16:50:17.722Z,0.85
2023-06-12T16:52:44.712Z,0.80
2023-06-12T16:55:12.121Z,1.20
2023-06-12T16:57:40.056Z,0.95
2023-06-12T17:00:09.368Z,1.02
2023-06-12T17:02:36.856Z,1.10
2023-06-12T17:05:04.405Z,1.00
2023-06-12T17:07:31.630Z,0.80
2023-06-12T17:10:02.718Z,0.90
2023-06-12T17:12:29.891Z,1.00
2023-06-12T17:14:57.006Z,0.90
2023-06-12T17:17:24.989Z,1.10
2023-06-12T17:19:52.285Z,0.90
2023-06-12T17:22:19.269Z,1.37
2023-06-12T17:24:46.549Z,1.10
2023-06-12T17:27:13.843Z,1.10
2023-06-12T17:29:41.686Z,1.08
2023-06-12T17:32:09.407Z,1.00
2023-06-12T17:34:37.706Z,1.27
2023-06-12T17:37:05.372Z,1.23
2023-06-12T17:39:32.418Z,1.20
2023-06-12T17:41:59.430Z,1.03
2023-06-12T17:44:28.058Z,0.80
2023-06-12T17:46:55.291Z,0.90
2023-06-12T17:49:22.310Z,1.00
2023-06-12T17:51:49.464Z,1.00
2023-06-12T17:54:16.536Z,1.07
2023-06-12T17:56:44.103Z,1.07
2023-06-12T17:59:11.198Z,0.80
2023-06-12T18:01:38.287Z,0.97
2023-06-12T18:04:06.801Z,1.00
2023-06-12T18:06:34.381Z,0.93
2023-06-12T18:09:01.334Z,0.90
2023-06-12T18:11:28.374Z,0.90
2023-06-12T18:13:55.345Z,0.90
2023-06-12T18:16:23.190Z,0.83
2023-06-12T18:18:50.895Z,0.80
2023-06-12T18:21:18.119Z,1.00
2023-06-12T18:23:45.378Z,1.07
2023-06-12T18:26:12.435Z,0.90
2023-06-12T18:28:39.374Z,0.80
2023-06-12T18:31:06.394Z,0.90
2023-06-12T18:33:33.450Z,0.80
2023-06-12T18:36:00.767Z,0.90
2023-06-12T18:38:27.784Z,1.30
2023-06-12T18:40:54.861Z,0.87
2023-06-12T18:43:21.956Z,0.80
2023-06-12T18:45:49.139Z,0.80
2023-06-12T18:48:16.149Z,0.60
2023-06-12T18:50:43.196Z,0.80
2023-06-12T18:53:10.146Z,0.87
2023-06-12T18:55:40.544Z,0.87
2023-06-12T18:58:07.507Z,0.87
2023-06-12T19:00:34.620Z,0.80
2023-06-12T19:03:01.696Z,1.00
2023-06-12T19:05:29.080Z,0.90
2023-06-12T19:07:57.516Z,0.80
2023-06-12T19:10:27.410Z,0.80
2023-06-12T19:12:55.429Z,0.80
2023-06-12T19:15:22.563Z,0.70
2023-06-12T19:17:49.654Z,1.00
2023-06-12T19:20:16.628Z,0.90
2023-06-12T19:22:43.592Z,1.00
2023-06-12T19:25:10.804Z,0.73
2023-06-12T19:27:37.873Z,1.20
2023-06-12T19:30:05.913Z,1.00
2023-06-12T19:32:34.268Z,0.83
2023-06-12T19:35:01.530Z,0.60
2023-06-12T19:37:28.456Z,0.63
2023-06-12T19:39:55.580Z,1.00
2023-06-12T19:42:22.622Z,1.10
2023-06-12T19:44:49.853Z,0.87
2023-06-12T19:47:16.829Z,1.00
2023-06-12T19:49:44.407Z,0.90
2023-06-12T19:52:11.364Z,0.80
2023-06-12T19:54:39.137Z,1.00
2023-06-12T19:57:06.972Z,0.97
2023-06-12T19:59:37.146Z,0.87
2023-06-12T20:02:08.568Z,0.90
2023-06-12T20:04:37.471Z,1.10
2023-06-12T20:07:07.326Z,1.03
2023-06-12T20:09:34.619Z,0.90
2023-06-12T20:12:01.555Z,1.10
2023-06-12T20:14:28.581Z,0.87
2023-06-12T20:16:55.579Z,1.10
2023-06-12T20:19:23.810Z,0.90
2023-06-12T20:21:51.645Z,0.97
2023-06-12T20:24:21.900Z,1.17
2023-06-12T20:26:52.996Z,1.30
2023-06-12T20:29:19.976Z,1.20
2023-06-12T20:31:47.315Z,1.27
2023-06-12T20:34:14.421Z,1.23
2023-06-12T20:36:41.484Z,1.23
2023-06-12T20:39:10.225Z,1.20
2023-06-12T20:41:37.177Z,1.10
2023-06-12T20:44:04.391Z,1.20
2023-06-12T20:46:32.112Z,1.13
2023-06-12T20:48:59.247Z,0.93
2023-06-12T20:51:28.876Z,1.40
2023-06-12T20:53:56.564Z,1.40
2023-06-12T20:56:23.661Z,1.30
2023-06-12T20:58:53.681Z,1.40
2023-06-12T21:01:21.601Z,1.30
2023-06-12T21:03:55.203Z,1.00
2023-06-12T21:06:23.095Z,1.47
2023-06-12T21:08:59.982Z,1.30
2023-06-12T21:11:35.000Z,1.30
2023-06-12T21:14:10.636Z,1.53
2023-06-12T21:16:38.544Z,1.33
2023-06-12T21:19:06.553Z,1.30
2023-06-12T21:21:34.479Z,1.40
2023-06-12T21:24:01.831Z,1.40
2023-06-12T21:26:30.937Z,1.30
2023-06-12T21:28:58.302Z,1.40
2023-06-12T21:31:31.076Z,1.33
2023-06-12T21:33:58.949Z,1.10
2023-06-12T21:36:26.340Z,1.50
2023-06-12T21:38:53.606Z,1.50
2023-06-12T21:41:20.877Z,1.40
2023-06-12T21:43:48.009Z,1.20
2023-06-12T21:46:15.413Z,1.50
2023-06-12T21:48:42.594Z,1.60
2023-06-12T21:51:10.386Z,1.43
2023-06-12T21:53:37.404Z,1.50
2023-06-12T21:56:04.878Z,1.50
2023-06-12T21:58:32.339Z,1.40
2023-06-12T22:01:00.226Z,1.40
2023-06-12T22:03:28.233Z,1.73
2023-06-12T22:05:58.999Z,1.40
2023-06-12T22:08:27.632Z,1.47
2023-06-12T22:10:55.152Z,1.60
2023-06-12T22:13:22.108Z,1.87
2023-06-12T22:15:49.414Z,1.53
2023-06-12T22:18:17.470Z,1.90
2023-06-12T22:20:44.956Z,1.53
2023-06-12T22:23:13.854Z,1.80
2023-06-12T22:25:42.066Z,1.50
2023-06-12T22:28:09.798Z,1.63
2023-06-12T22:30:51.632Z,1.60
2023-06-12T22:33:24.086Z,1.43
2023-06-12T22:35:51.681Z,1.63
2023-06-12T22:38:19.308Z,1.70
2023-06-12T22:40:46.293Z,1.50
2023-06-12T22:43:16.084Z,1.90
2023-06-12T22:45:44.209Z,1.60
2023-06-12T22:48:11.562Z,1.50
2023-06-12T22:50:39.323Z,1.87
2023-06-12T22:53:12.874Z,1.60
2023-06-12T22:55:41.386Z,1.50
2023-06-12T22:58:08.376Z,1.60
2023-06-12T23:00:35.378Z,1.37
2023-06-12T23:03:02.360Z,1.60
2023-06-12T23:05:29.908Z,1.80
2023-06-12T23:07:56.942Z,1.70
2023-06-12T23:10:23.992Z,1.60
2023-06-12T23:12:50.923Z,1.60
2023-06-12T23:15:18.043Z,1.57
2023-06-12T23:17:48.955Z,1.90
2023-06-12T23:20:17.553Z,1.70
2023-06-12T23:22:44.930Z,1.60
2023-06-12T23:25:13.226Z,1.50
2023-06-12T23:27:42.239Z,1.70
2023-06-12T23:30:10.097Z,1.40
2023-06-12T23:32:38.279Z,1.67
2023-06-12T23:35:06.020Z,1.93
2023-06-12T23:37:33.150Z,1.73
2023-06-12T23:40:00.243Z,1.70
2023-06-12T23:42:27.613Z,1.70
2023-06-12T23:44:54.640Z,1.77
2023-06-12T23:47:21.645Z,1.83
2023-06-12T23:49:48.684Z,1.80
2023-06-12T23:52:15.679Z,1.70
2023-06-12T23:54:42.727Z,1.57
2023-06-12T23:57:09.793Z,1.50
2023-06-12T23:59:36.770Z,1.83
